sensor_id;sensor_type;location;lat;lon;timestamp;P1;durP1;ratioP1;P2;durP2;ratioP2
82344;SDS011;72653;56.882;60.614;2023-09-19T00:00:59;7.45;;;3.97;;
82344;SDS011;72653;56.882;60.614;2023-09-19T00:03:25;3.80;;;2.42;;
82344;SDS011;72653;56.882;60.614;2023-09-19T00:05:51;5.88;;;3.35;;
82344;SDS011;72653;56.882;60.614;2023-09-19T00:08:16;6.38;;;3.83;;
82344;SDS011;72653;56.882;60.614;2023-09-19T00:10:42;11.60;;;5.88;;
82344;SDS011;72653;56.882;60.614;2023-09-19T00:13:08;6.13;;;4.68;;
82344;SDS011;72653;56.882;60.614;2023-09-19T00:15:39;11.57;;;5.15;;
82344;SDS011;72653;56.882;60.614;2023-09-19T00:18:05;12.10;;;4.38;;
82344;SDS011;72653;56.882;60.614;2023-09-19T00:20:37;5.80;;;4.00;;
82344;SDS011;72653;56.882;60.614;2023-09-19T00:23:04;10.35;;;5.88;;
82344;SDS011;72653;56.882;60.614;2023-09-19T00:25:29;7.95;;;4.72;;
82344;SDS011;72653;56.882;60.614;2023-09-19T00:27:57;7.45;;;5.03;;
82344;SDS011;72653;56.882;60.614;2023-09-19T00:30:23;7.55;;;4.72;;
82344;SDS011;72653;56.882;60.614;2023-09-19T00:32:50;6.97;;;4.20;;
82344;SDS011;72653;56.882;60.614;2023-09-19T00:35:18;5.43;;;3.65;;
82344;SDS011;72653;56.882;60.614;2023-09-19T00:37:50;11.02;;;4.05;;
82344;SDS011;72653;56.882;60.614;2023-09-19T00:40:16;2.80;;;2.50;;
82344;SDS011;72653;56.882;60.614;2023-09-19T00:42:42;4.53;;;3.20;;
82344;SDS011;72653;56.882;60.614;2023-09-19T00:45:09;10.32;;;4.25;;
82344;SDS011;72653;56.882;60.614;2023-09-19T00:47:37;4.03;;;3.00;;
82344;SDS011;72653;56.882;60.614;2023-09-19T00:50:04;7.57;;;5.03;;
82344;SDS011;72653;56.882;60.614;2023-09-19T00:52:32;14.75;;;4.97;;
82344;SDS011;72653;56.882;60.614;2023-09-19T00:54:58;3.63;;;2.40;;
82344;SDS011;72653;56.882;60.614;2023-09-19T00:59:51;3.30;;;2.50;;
82344;SDS011;72653;56.882;60.614;2023-09-19T01:02:19;7.57;;;4.50;;
82344;SDS011;72653;56.882;60.614;2023-09-19T01:04:45;11.73;;;4.70;;
82344;SDS011;72653;56.882;60.614;2023-09-19T01:07:11;10.70;;;5.18;;
82344;SDS011;72653;56.882;60.614;2023-09-19T01:09:36;7.07;;;4.28;;
82344;SDS011;72653;56.882;60.614;2023-09-19T01:12:04;6.75;;;4.80;;
82344;SDS011;72653;56.882;60.614;2023-09-19T01:14:52;6.50;;;4.85;;
82344;SDS011;72653;56.882;60.614;2023-09-19T01:17:30;8.70;;;4.38;;
82344;SDS011;72653;56.882;60.614;2023-09-19T01:28:20;3.85;;;3.15;;
82344;SDS011;72653;56.882;60.614;2023-09-19T01:30:47;5.47;;;2.95;;
82344;SDS011;72653;56.882;60.614;2023-09-19T01:33:16;5.10;;;3.58;;
82344;SDS011;72653;56.882;60.614;2023-09-19T01:35:42;3.80;;;3.47;;
82344;SDS011;72653;56.882;60.614;2023-09-19T01:38:07;4.30;;;2.08;;
82344;SDS011;72653;56.882;60.614;2023-09-19T01:40:41;4.35;;;3.40;;
82344;SDS011;72653;56.882;60.614;2023-09-19T01:48:05;2.80;;;2.38;;
82344;SDS011;72653;56.882;60.614;2023-09-19T01:53:41;8.73;;;6.03;;
82344;SDS011;72653;56.882;60.614;2023-09-19T01:56:10;4.63;;;3.55;;
82344;SDS011;72653;56.882;60.614;2023-09-19T02:01:04;8.38;;;4.03;;
82344;SDS011;72653;56.882;60.614;2023-09-19T02:03:31;3.15;;;2.15;;
82344;SDS011;72653;56.882;60.614;2023-09-19T02:05:58;6.10;;;4.72;;
82344;SDS011;72653;56.882;60.614;2023-09-19T02:08:24;5.70;;;3.80;;
82344;SDS011;72653;56.882;60.614;2023-09-19T02:10:51;13.50;;;4.00;;
82344;SDS011;72653;56.882;60.614;2023-09-19T02:13:21;4.05;;;2.50;;
82344;SDS011;72653;56.882;60.614;2023-09-19T02:15:47;4.32;;;3.90;;
82344;SDS011;72653;56.882;60.614;2023-09-19T02:18:13;14.05;;;4.35;;
82344;SDS011;72653;56.882;60.614;2023-09-19T02:20:39;7.55;;;3.30;;
82344;SDS011;72653;56.882;60.614;2023-09-19T02:23:05;6.13;;;3.03;;
82344;SDS011;72653;56.882;60.614;2023-09-19T02:25:31;3.42;;;2.63;;
82344;SDS011;72653;56.882;60.614;2023-09-19T02:27:57;7.22;;;2.80;;
82344;SDS011;72653;56.882;60.614;2023-09-19T02:30:24;4.22;;;3.00;;
82344;SDS011;72653;56.882;60.614;2023-09-19T02:32:53;6.00;;;3.22;;
82344;SDS011;72653;56.882;60.614;2023-09-19T02:35:19;6.13;;;3.90;;
82344;SDS011;72653;56.882;60.614;2023-09-19T02:37:47;9.48;;;3.60;;
82344;SDS011;72653;56.882;60.614;2023-09-19T02:40:13;18.50;;;7.07;;
82344;SDS011;72653;56.882;60.614;2023-09-19T02:42:48;10.68;;;4.18;;
82344;SDS011;72653;56.882;60.614;2023-09-19T02:45:15;12.57;;;4.05;;
82344;SDS011;72653;56.882;60.614;2023-09-19T02:47:43;5.97;;;5.10;;
82344;SDS011;72653;56.882;60.614;2023-09-19T02:50:09;8.02;;;3.20;;
82344;SDS011;72653;56.882;60.614;2023-09-19T02:52:36;8.48;;;5.47;;
82344;SDS011;72653;56.882;60.614;2023-09-19T02:55:02;4.43;;;3.40;;
82344;SDS011;72653;56.882;60.614;2023-09-19T02:57:29;4.93;;;2.78;;
82344;SDS011;72653;56.882;60.614;2023-09-19T02:59:58;5.00;;;3.38;;
82344;SDS011;72653;56.882;60.614;2023-09-19T03:02:26;4.35;;;2.92;;
82344;SDS011;72653;56.882;60.614;2023-09-19T03:04:53;4.90;;;2.83;;
82344;SDS011;72653;56.882;60.614;2023-09-19T03:07:19;5.45;;;3.25;;
82344;SDS011;72653;56.882;60.614;2023-09-19T03:09:44;3.60;;;2.30;;
82344;SDS011;72653;56.882;60.614;2023-09-19T03:12:10;6.63;;;4.00;;
82344;SDS011;72653;56.882;60.614;2023-09-19T03:14:36;8.60;;;2.67;;
82344;SDS011;72653;56.882;60.614;2023-09-19T03:17:02;2.58;;;2.00;;
82344;SDS011;72653;56.882;60.614;2023-09-19T03:19:31;18.23;;;3.92;;
82344;SDS011;72653;56.882;60.614;2023-09-19T03:21:59;3.58;;;2.53;;
82344;SDS011;72653;56.882;60.614;2023-09-19T03:24:24;5.65;;;3.40;;
82344;SDS011;72653;56.882;60.614;2023-09-19T03:26:51;7.90;;;3.53;;
82344;SDS011;72653;56.882;60.614;2023-09-19T03:29:17;6.10;;;4.70;;
82344;SDS011;72653;56.882;60.614;2023-09-19T03:31:43;6.78;;;3.35;;
82344;SDS011;72653;56.882;60.614;2023-09-19T03:34:09;12.48;;;4.18;;
82344;SDS011;72653;56.882;60.614;2023-09-19T03:36:35;4.43;;;3.22;;
82344;SDS011;72653;56.882;60.614;2023-09-19T03:39:01;5.35;;;4.03;;
82344;SDS011;72653;56.882;60.614;2023-09-19T03:41:26;4.75;;;3.65;;
82344;SDS011;72653;56.882;60.614;2023-09-19T03:43:52;3.72;;;2.92;;
82344;SDS011;72653;56.882;60.614;2023-09-19T03:46:18;14.27;;;3.63;;
82344;SDS011;72653;56.882;60.614;2023-09-19T03:48:43;6.47;;;3.45;;
82344;SDS011;72653;56.882;60.614;2023-09-19T03:51:09;5.65;;;3.63;;
82344;SDS011;72653;56.882;60.614;2023-09-19T03:53:36;3.33;;;2.80;;
82344;SDS011;72653;56.882;60.614;2023-09-19T03:56:01;4.10;;;2.65;;
82344;SDS011;72653;56.882;60.614;2023-09-19T03:58:28;4.03;;;2.47;;
82344;SDS011;72653;56.882;60.614;2023-09-19T04:00:56;5.90;;;2.92;;
82344;SDS011;72653;56.882;60.614;2023-09-19T04:03:23;4.18;;;2.75;;
82344;SDS011;72653;56.882;60.614;2023-09-19T04:05:48;4.10;;;3.03;;
82344;SDS011;72653;56.882;60.614;2023-09-19T04:08:14;3.05;;;2.05;;
82344;SDS011;72653;56.882;60.614;2023-09-19T04:10:43;3.78;;;2.67;;
82344;SDS011;72653;56.882;60.614;2023-09-19T04:13:10;3.13;;;2.60;;
82344;SDS011;72653;56.882;60.614;2023-09-19T04:15:36;5.35;;;3.95;;
82344;SDS011;72653;56.882;60.614;2023-09-19T04:18:03;4.05;;;2.35;;
82344;SDS011;72653;56.882;60.614;2023-09-19T04:20:28;4.25;;;2.60;;
82344;SDS011;72653;56.882;60.614;2023-09-19T04:22:54;4.22;;;3.83;;
82344;SDS011;72653;56.882;60.614;2023-09-19T04:25:20;5.82;;;1.83;;
82344;SDS011;72653;56.882;60.614;2023-09-19T04:27:46;5.70;;;3.03;;
82344;SDS011;72653;56.882;60.614;2023-09-19T04:30:13;8.70;;;2.60;;
82344;SDS011;72653;56.882;60.614;2023-09-19T04:35:06;12.10;;;3.58;;
82344;SDS011;72653;56.882;60.614;2023-09-19T04:37:33;15.35;;;3.42;;
82344;SDS011;72653;56.882;60.614;2023-09-19T04:39:59;5.00;;;2.92;;
82344;SDS011;72653;56.882;60.614;2023-09-19T04:42:24;6.00;;;2.90;;
82344;SDS011;72653;56.882;60.614;2023-09-19T04:44:50;4.20;;;3.67;;
82344;SDS011;72653;56.882;60.614;2023-09-19T04:47:18;3.40;;;2.47;;
82344;SDS011;72653;56.882;60.614;2023-09-19T04:49:43;2.65;;;1.98;;
82344;SDS011;72653;56.882;60.614;2023-09-19T04:52:09;5.38;;;2.45;;
82344;SDS011;72653;56.882;60.614;2023-09-19T04:54:34;4.43;;;2.92;;
82344;SDS011;72653;56.882;60.614;2023-09-19T04:57:00;4.95;;;2.85;;
82344;SDS011;72653;56.882;60.614;2023-09-19T04:59:26;8.30;;;3.10;;
82344;SDS011;72653;56.882;60.614;2023-09-19T05:01:53;5.38;;;2.97;;
82344;SDS011;72653;56.882;60.614;2023-09-19T05:04:19;2.58;;;2.03;;
82344;SDS011;72653;56.882;60.614;2023-09-19T05:06:45;5.05;;;2.28;;
82344;SDS011;72653;56.882;60.614;2023-09-19T05:09:12;5.47;;;3.22;;
82344;SDS011;72653;56.882;60.614;2023-09-19T05:11:38;19.98;;;3.10;;
82344;SDS011;72653;56.882;60.614;2023-09-19T05:14:04;3.70;;;2.08;;
82344;SDS011;72653;56.882;60.614;2023-09-19T05:16:30;3.13;;;1.55;;
82344;SDS011;72653;56.882;60.614;2023-09-19T05:18:58;3.67;;;2.45;;
82344;SDS011;72653;56.882;60.614;2023-09-19T05:21:25;2.70;;;2.13;;
82344;SDS011;72653;56.882;60.614;2023-09-19T05:23:54;3.25;;;2.03;;
82344;SDS011;72653;56.882;60.614;2023-09-19T05:26:20;6.90;;;2.70;;
82344;SDS011;72653;56.882;60.614;2023-09-19T05:28:46;3.63;;;2.03;;
82344;SDS011;72653;56.882;60.614;2023-09-19T05:31:13;5.10;;;3.30;;
82344;SDS011;72653;56.882;60.614;2023-09-19T05:33:39;5.28;;;2.55;;
82344;SDS011;72653;56.882;60.614;2023-09-19T05:36:05;5.32;;;2.72;;
82344;SDS011;72653;56.882;60.614;2023-09-19T05:38:31;5.97;;;3.13;;
82344;SDS011;72653;56.882;60.614;2023-09-19T05:43:23;5.97;;;2.28;;
82344;SDS011;72653;56.882;60.614;2023-09-19T05:45:49;2.92;;;2.08;;
82344;SDS011;72653;56.882;60.614;2023-09-19T05:48:17;4.00;;;2.58;;
82344;SDS011;72653;56.882;60.614;2023-09-19T05:50:43;3.13;;;1.88;;
82344;SDS011;72653;56.882;60.614;2023-09-19T05:53:10;8.70;;;2.38;;
82344;SDS011;72653;56.882;60.614;2023-09-19T05:55:40;2.35;;;1.67;;
82344;SDS011;72653;56.882;60.614;2023-09-19T05:58:05;3.17;;;1.73;;
82344;SDS011;72653;56.882;60.614;2023-09-19T06:00:31;2.42;;;1.55;;
82344;SDS011;72653;56.882;60.614;2023-09-19T06:02:57;3.22;;;1.80;;
82344;SDS011;72653;56.882;60.614;2023-09-19T06:05:24;4.07;;;1.80;;
82344;SDS011;72653;56.882;60.614;2023-09-19T06:07:50;3.92;;;3.33;;
82344;SDS011;72653;56.882;60.614;2023-09-19T06:10:17;3.83;;;2.28;;
82344;SDS011;72653;56.882;60.614;2023-09-19T06:12:43;2.50;;;1.88;;
82344;SDS011;72653;56.882;60.614;2023-09-19T06:15:09;2.13;;;1.20;;
82344;SDS011;72653;56.882;60.614;2023-09-19T06:17:41;3.20;;;1.50;;
82344;SDS011;72653;56.882;60.614;2023-09-19T06:20:07;3.03;;;1.23;;
82344;SDS011;72653;56.882;60.614;2023-09-19T06:22:43;3.13;;;1.63;;
82344;SDS011;72653;56.882;60.614;2023-09-19T06:25:11;2.22;;;1.65;;
82344;SDS011;72653;56.882;60.614;2023-09-19T06:27:38;3.92;;;1.67;;
82344;SDS011;72653;56.882;60.614;2023-09-19T06:30:07;4.18;;;1.50;;
82344;SDS011;72653;56.882;60.614;2023-09-19T06:32:34;3.83;;;2.42;;
82344;SDS011;72653;56.882;60.614;2023-09-19T06:34:59;2.63;;;1.25;;
82344;SDS011;72653;56.882;60.614;2023-09-19T06:37:28;3.85;;;1.83;;
82344;SDS011;72653;56.882;60.614;2023-09-19T06:39:54;3.08;;;1.92;;
82344;SDS011;72653;56.882;60.614;2023-09-19T06:42:20;1.83;;;1.33;;
82344;SDS011;72653;56.882;60.614;2023-09-19T06:44:48;3.35;;;1.73;;
82344;SDS011;72653;56.882;60.614;2023-09-19T06:47:14;2.70;;;1.92;;
82344;SDS011;72653;56.882;60.614;2023-09-19T06:49:41;2.47;;;1.88;;
82344;SDS011;72653;56.882;60.614;2023-09-19T06:52:09;3.10;;;1.83;;
82344;SDS011;72653;56.882;60.614;2023-09-19T06:54:35;2.88;;;1.58;;
82344;SDS011;72653;56.882;60.614;2023-09-19T06:57:01;5.35;;;2.38;;
82344;SDS011;72653;56.882;60.614;2023-09-19T06:59:27;2.75;;;1.80;;
82344;SDS011;72653;56.882;60.614;2023-09-19T07:02:06;1.58;;;1.02;;
82344;SDS011;72653;56.882;60.614;2023-09-19T07:04:31;2.92;;;2.00;;
82344;SDS011;72653;56.882;60.614;2023-09-19T07:06:58;6.93;;;1.70;;
82344;SDS011;72653;56.882;60.614;2023-09-19T07:09:23;3.15;;;1.98;;
82344;SDS011;72653;56.882;60.614;2023-09-19T07:11:52;4.47;;;2.63;;
82344;SDS011;72653;56.882;60.614;2023-09-19T07:14:18;3.05;;;1.98;;
82344;SDS011;72653;56.882;60.614;2023-09-19T07:16:44;5.55;;;2.40;;
82344;SDS011;72653;56.882;60.614;2023-09-19T07:19:10;3.53;;;1.75;;
82344;SDS011;72653;56.882;60.614;2023-09-19T07:21:36;4.70;;;2.42;;
82344;SDS011;72653;56.882;60.614;2023-09-19T07:24:04;5.78;;;2.08;;
82344;SDS011;72653;56.882;60.614;2023-09-19T07:26:30;3.80;;;2.40;;
82344;SDS011;72653;56.882;60.614;2023-09-19T07:28:56;2.47;;;1.73;;
82344;SDS011;72653;56.882;60.614;2023-09-19T07:31:22;3.80;;;2.08;;
82344;SDS011;72653;56.882;60.614;2023-09-19T07:33:48;3.80;;;2.35;;
82344;SDS011;72653;56.882;60.614;2023-09-19T07:36:14;2.22;;;1.25;;
82344;SDS011;72653;56.882;60.614;2023-09-19T07:38:41;2.67;;;1.65;;
82344;SDS011;72653;56.882;60.614;2023-09-19T07:41:07;3.95;;;2.08;;
82344;SDS011;72653;56.882;60.614;2023-09-19T07:43:35;6.53;;;2.00;;
82344;SDS011;72653;56.882;60.614;2023-09-19T07:46:07;5.68;;;2.53;;
82344;SDS011;72653;56.882;60.614;2023-09-19T07:48:37;3.15;;;1.58;;
82344;SDS011;72653;56.882;60.614;2023-09-19T07:51:03;3.90;;;2.00;;
82344;SDS011;72653;56.882;60.614;2023-09-19T07:53:29;5.72;;;2.38;;
82344;SDS011;72653;56.882;60.614;2023-09-19T07:56:02;3.42;;;2.25;;
82344;SDS011;72653;56.882;60.614;2023-09-19T07:58:27;6.80;;;2.17;;
82344;SDS011;72653;56.882;60.614;2023-09-19T08:00:54;7.82;;;2.25;;
82344;SDS011;72653;56.882;60.614;2023-09-19T08:03:19;2.70;;;2.22;;
82344;SDS011;72653;56.882;60.614;2023-09-19T08:05:45;2.83;;;1.52;;
82344;SDS011;72653;56.882;60.614;2023-09-19T08:08:11;1.65;;;1.00;;
82344;SDS011;72653;56.882;60.614;2023-09-19T08:10:39;2.60;;;1.23;;
82344;SDS011;72653;56.882;60.614;2023-09-19T08:13:07;5.38;;;2.03;;
82344;SDS011;72653;56.882;60.614;2023-09-19T08:15:37;2.38;;;1.63;;
82344;SDS011;72653;56.882;60.614;2023-09-19T08:18:09;3.92;;;2.33;;
82344;SDS011;72653;56.882;60.614;2023-09-19T08:20:37;2.92;;;1.65;;
82344;SDS011;72653;56.882;60.614;2023-09-19T08:23:03;2.85;;;1.67;;
82344;SDS011;72653;56.882;60.614;2023-09-19T08:25:29;5.07;;;2.70;;
82344;SDS011;72653;56.882;60.614;2023-09-19T08:27:55;2.17;;;1.42;;
82344;SDS011;72653;56.882;60.614;2023-09-19T08:30:25;2.35;;;1.58;;
82344;SDS011;72653;56.882;60.614;2023-09-19T08:33:01;2.05;;;1.83;;
82344;SDS011;72653;56.882;60.614;2023-09-19T08:35:29;3.53;;;1.65;;
82344;SDS011;72653;56.882;60.614;2023-09-19T08:37:55;2.97;;;2.22;;
82344;SDS011;72653;56.882;60.614;2023-09-19T08:40:22;1.80;;;1.15;;
82344;SDS011;72653;56.882;60.614;2023-09-19T08:42:54;2.13;;;1.25;;
82344;SDS011;72653;56.882;60.614;2023-09-19T08:45:20;2.22;;;1.83;;
82344;SDS011;72653;56.882;60.614;2023-09-19T08:48:05;4.78;;;1.50;;
82344;SDS011;72653;56.882;60.614;2023-09-19T08:50:36;1.60;;;1.08;;
82344;SDS011;72653;56.882;60.614;2023-09-19T08:53:08;3.60;;;1.30;;
82344;SDS011;72653;56.882;60.614;2023-09-19T08:55:36;1.98;;;1.10;;
82344;SDS011;72653;56.882;60.614;2023-09-19T08:58:06;2.05;;;1.60;;
82344;SDS011;72653;56.882;60.614;2023-09-19T09:00:35;1.02;;;0.80;;
82344;SDS011;72653;56.882;60.614;2023-09-19T09:03:01;2.53;;;2.28;;
82344;SDS011;72653;56.882;60.614;2023-09-19T09:05:28;2.22;;;1.20;;
82344;SDS011;72653;56.882;60.614;2023-09-19T09:07:55;2.92;;;1.83;;
82344;SDS011;72653;56.882;60.614;2023-09-19T09:10:22;2.33;;;1.50;;
82344;SDS011;72653;56.882;60.614;2023-09-19T09:12:51;1.67;;;1.08;;
82344;SDS011;72653;56.882;60.614;2023-09-19T09:15:18;3.63;;;1.65;;
82344;SDS011;72653;56.882;60.614;2023-09-19T09:17:47;6.30;;;1.25;;
82344;SDS011;72653;56.882;60.614;2023-09-19T09:20:14;1.95;;;1.35;;
82344;SDS011;72653;56.882;60.614;2023-09-19T09:22:49;1.55;;;0.88;;
82344;SDS011;72653;56.882;60.614;2023-09-19T09:25:15;2.60;;;2.38;;
82344;SDS011;72653;56.882;60.614;2023-09-19T09:27:43;3.55;;;2.10;;
82344;SDS011;72653;56.882;60.614;2023-09-19T09:30:10;4.03;;;1.25;;
82344;SDS011;72653;56.882;60.614;2023-09-19T09:33:07;1.85;;;1.15;;
82344;SDS011;72653;56.882;60.614;2023-09-19T09:35:33;2.45;;;1.70;;
82344;SDS011;72653;56.882;60.614;2023-09-19T09:38:01;3.92;;;1.40;;
82344;SDS011;72653;56.882;60.614;2023-09-19T09:40:46;3.28;;;1.55;;
82344;SDS011;72653;56.882;60.614;2023-09-19T09:46:13;2.90;;;1.40;;
82344;SDS011;72653;56.882;60.614;2023-09-19T09:51:39;2.30;;;1.48;;
82344;SDS011;72653;56.882;60.614;2023-09-19T09:54:11;3.50;;;1.42;;
82344;SDS011;72653;56.882;60.614;2023-09-19T09:59:44;1.50;;;0.90;;
82344;SDS011;72653;56.882;60.614;2023-09-19T10:02:15;2.55;;;1.77;;
82344;SDS011;72653;56.882;60.614;2023-09-19T10:04:48;5.10;;;1.30;;
82344;SDS011;72653;56.882;60.614;2023-09-19T10:07:25;2.22;;;1.40;;
82344;SDS011;72653;56.882;60.614;2023-09-19T10:09:53;1.30;;;0.98;;
82344;SDS011;72653;56.882;60.614;2023-09-19T10:12:24;2.50;;;1.02;;
82344;SDS011;72653;56.882;60.614;2023-09-19T10:14:54;2.53;;;1.60;;
82344;SDS011;72653;56.882;60.614;2023-09-19T10:17:23;7.30;;;3.40;;
82344;SDS011;72653;56.882;60.614;2023-09-19T10:19:56;2.03;;;1.02;;
82344;SDS011;72653;56.882;60.614;2023-09-19T10:22:24;4.10;;;2.33;;
82344;SDS011;72653;56.882;60.614;2023-09-19T10:24:53;1.40;;;0.85;;
82344;SDS011;72653;56.882;60.614;2023-09-19T10:27:19;2.40;;;0.90;;
82344;SDS011;72653;56.882;60.614;2023-09-19T10:29:51;1.90;;;1.33;;
82344;SDS011;72653;56.882;60.614;2023-09-19T10:32:16;3.03;;;1.10;;
82344;SDS011;72653;56.882;60.614;2023-09-19T10:34:46;2.05;;;1.10;;
82344;SDS011;72653;56.882;60.614;2023-09-19T10:37:12;1.10;;;0.85;;
82344;SDS011;72653;56.882;60.614;2023-09-19T10:39:39;2.13;;;1.08;;
82344;SDS011;72653;56.882;60.614;2023-09-19T10:42:06;3.20;;;1.00;;
82344;SDS011;72653;56.882;60.614;2023-09-19T10:44:32;1.77;;;1.02;;
82344;SDS011;72653;56.882;60.614;2023-09-19T10:46:58;0.77;;;0.47;;
82344;SDS011;72653;56.882;60.614;2023-09-19T10:49:24;3.60;;;1.40;;
82344;SDS011;72653;56.882;60.614;2023-09-19T10:51:57;1.52;;;1.02;;
82344;SDS011;72653;56.882;60.614;2023-09-19T10:54:26;1.77;;;0.93;;
82344;SDS011;72653;56.882;60.614;2023-09-19T10:56:53;1.45;;;1.00;;
82344;SDS011;72653;56.882;60.614;2023-09-19T10:59:20;6.80;;;1.38;;
82344;SDS011;72653;56.882;60.614;2023-09-19T11:01:50;2.05;;;1.13;;
82344;SDS011;72653;56.882;60.614;2023-09-19T11:04:31;4.30;;;1.10;;
82344;SDS011;72653;56.882;60.614;2023-09-19T11:07:00;1.10;;;0.70;;
82344;SDS011;72653;56.882;60.614;2023-09-19T11:12:17;1.98;;;0.85;;
82344;SDS011;72653;56.882;60.614;2023-09-19T11:15:07;0.75;;;0.38;;
82344;SDS011;72653;56.882;60.614;2023-09-19T11:17:34;1.33;;;0.90;;
82344;SDS011;72653;56.882;60.614;2023-09-19T11:30:34;4.88;;;0.95;;
82344;SDS011;72653;56.882;60.614;2023-09-19T11:49:17;1.17;;;0.63;;
82344;SDS011;72653;56.882;60.614;2023-09-19T11:51:50;2.40;;;1.15;;
82344;SDS011;72653;56.882;60.614;2023-09-19T11:54:17;1.58;;;0.98;;
82344;SDS011;72653;56.882;60.614;2023-09-19T11:56:53;1.00;;;0.60;;
82344;SDS011;72653;56.882;60.614;2023-09-19T11:59:23;1.80;;;0.63;;
82344;SDS011;72653;56.882;60.614;2023-09-19T12:01:53;3.08;;;1.35;;
82344;SDS011;72653;56.882;60.614;2023-09-19T12:04:44;1.45;;;1.10;;
82344;SDS011;72653;56.882;60.614;2023-09-19T12:07:11;1.30;;;0.63;;
82344;SDS011;72653;56.882;60.614;2023-09-19T12:09:51;1.38;;;0.85;;
82344;SDS011;72653;56.882;60.614;2023-09-19T12:12:26;0.95;;;0.52;;
82344;SDS011;72653;56.882;60.614;2023-09-19T12:17:46;1.02;;;0.75;;
82344;SDS011;72653;56.882;60.614;2023-09-19T12:20:10;1.50;;;0.80;;
82344;SDS011;72653;56.882;60.614;2023-09-19T12:22:41;1.75;;;0.88;;
82344;SDS011;72653;56.882;60.614;2023-09-19T12:25:14;2.15;;;1.00;;
82344;SDS011;72653;56.882;60.614;2023-09-19T12:27:45;1.30;;;1.20;;
82344;SDS011;72653;56.882;60.614;2023-09-19T12:30:26;2.00;;;1.30;;
82344;SDS011;72653;56.882;60.614;2023-09-19T12:32:52;2.10;;;0.85;;
82344;SDS011;72653;56.882;60.614;2023-09-19T12:35:28;2.88;;;1.20;;
82344;SDS011;72653;56.882;60.614;2023-09-19T12:37:55;1.10;;;0.75;;
82344;SDS011;72653;56.882;60.614;2023-09-19T12:40:22;1.42;;;0.85;;
82344;SDS011;72653;56.882;60.614;2023-09-19T12:42:53;1.27;;;0.85;;
82344;SDS011;72653;56.882;60.614;2023-09-19T12:45:20;0.82;;;0.63;;
82344;SDS011;72653;56.882;60.614;2023-09-19T12:50:31;1.10;;;0.82;;
82344;SDS011;72653;56.882;60.614;2023-09-19T12:52:58;1.17;;;0.70;;
82344;SDS011;72653;56.882;60.614;2023-09-19T12:55:29;1.63;;;0.63;;
82344;SDS011;72653;56.882;60.614;2023-09-19T12:58:12;1.80;;;0.90;;
82344;SDS011;72653;56.882;60.614;2023-09-19T13:00:39;7.40;;;0.73;;
82344;SDS011;72653;56.882;60.614;2023-09-19T13:03:12;1.17;;;0.90;;
82344;SDS011;72653;56.882;60.614;2023-09-19T13:05:50;2.20;;;1.38;;
82344;SDS011;72653;56.882;60.614;2023-09-19T13:08:17;1.55;;;1.17;;
82344;SDS011;72653;56.882;60.614;2023-09-19T13:11:02;4.32;;;1.20;;
82344;SDS011;72653;56.882;60.614;2023-09-19T13:13:32;1.92;;;1.10;;
82344;SDS011;72653;56.882;60.614;2023-09-19T13:15:58;2.85;;;1.52;;
82344;SDS011;72653;56.882;60.614;2023-09-19T13:18:27;1.15;;;0.57;;
82344;SDS011;72653;56.882;60.614;2023-09-19T13:21:11;4.50;;;1.38;;
82344;SDS011;72653;56.882;60.614;2023-09-19T13:23:50;0.70;;;0.43;;
82344;SDS011;72653;56.882;60.614;2023-09-19T13:26:16;1.52;;;0.90;;
82344;SDS011;72653;56.882;60.614;2023-09-19T13:28:41;8.77;;;1.67;;
82344;SDS011;72653;56.882;60.614;2023-09-19T13:31:07;1.45;;;1.02;;
82344;SDS011;72653;56.882;60.614;2023-09-19T13:33:36;4.40;;;1.50;;
82344;SDS011;72653;56.882;60.614;2023-09-19T13:36:07;3.92;;;1.45;;
82344;SDS011;72653;56.882;60.614;2023-09-19T13:38:33;1.73;;;0.88;;
82344;SDS011;72653;56.882;60.614;2023-09-19T13:41:00;1.88;;;1.23;;
82344;SDS011;72653;56.882;60.614;2023-09-19T13:43:27;3.47;;;1.45;;
82344;SDS011;72653;56.882;60.614;2023-09-19T13:48:19;1.17;;;0.73;;
82344;SDS011;72653;56.882;60.614;2023-09-19T13:50:48;0.88;;;0.47;;
82344;SDS011;72653;56.882;60.614;2023-09-19T13:53:13;3.10;;;0.73;;
82344;SDS011;72653;56.882;60.614;2023-09-19T13:55:39;1.17;;;0.70;;
82344;SDS011;72653;56.882;60.614;2023-09-19T13:58:05;1.08;;;0.73;;
82344;SDS011;72653;56.882;60.614;2023-09-19T14:00:32;0.82;;;0.57;;
82344;SDS011;72653;56.882;60.614;2023-09-19T14:03:08;1.55;;;0.90;;
82344;SDS011;72653;56.882;60.614;2023-09-19T14:05:36;1.30;;;0.77;;
82344;SDS011;72653;56.882;60.614;2023-09-19T14:08:03;1.63;;;1.02;;
82344;SDS011;72653;56.882;60.614;2023-09-19T14:10:29;2.17;;;0.68;;
82344;SDS011;72653;56.882;60.614;2023-09-19T14:12:57;1.25;;;0.80;;
82344;SDS011;72653;56.882;60.614;2023-09-19T14:15:25;0.90;;;0.60;;
82344;SDS011;72653;56.882;60.614;2023-09-19T14:17:55;3.03;;;0.73;;
82344;SDS011;72653;56.882;60.614;2023-09-19T14:20:21;1.00;;;0.52;;
82344;SDS011;72653;56.882;60.614;2023-09-19T14:22:48;9.63;;;1.33;;
82344;SDS011;72653;56.882;60.614;2023-09-19T14:25:13;1.70;;;0.65;;
82344;SDS011;72653;56.882;60.614;2023-09-19T14:27:39;7.60;;;1.15;;
82344;SDS011;72653;56.882;60.614;2023-09-19T14:30:05;1.15;;;0.85;;
82344;SDS011;72653;56.882;60.614;2023-09-19T14:32:31;1.60;;;1.05;;
82344;SDS011;72653;56.882;60.614;2023-09-19T14:34:57;1.25;;;0.75;;
82344;SDS011;72653;56.882;60.614;2023-09-19T14:37:22;1.40;;;0.82;;
82344;SDS011;72653;56.882;60.614;2023-09-19T14:39:48;1.35;;;0.57;;
82344;SDS011;72653;56.882;60.614;2023-09-19T14:42:14;2.70;;;1.10;;
82344;SDS011;72653;56.882;60.614;2023-09-19T14:44:43;3.20;;;2.47;;
82344;SDS011;72653;56.882;60.614;2023-09-19T14:47:09;1.42;;;1.13;;
82344;SDS011;72653;56.882;60.614;2023-09-19T14:49:34;1.42;;;0.93;;
82344;SDS011;72653;56.882;60.614;2023-09-19T14:52:03;2.00;;;1.00;;
82344;SDS011;72653;56.882;60.614;2023-09-19T14:54:29;2.40;;;1.02;;
82344;SDS011;72653;56.882;60.614;2023-09-19T14:56:56;1.15;;;0.95;;
82344;SDS011;72653;56.882;60.614;2023-09-19T14:59:32;4.35;;;1.73;;
82344;SDS011;72653;56.882;60.614;2023-09-19T15:01:58;1.40;;;1.02;;
82344;SDS011;72653;56.882;60.614;2023-09-19T15:04:23;1.48;;;1.27;;
82344;SDS011;72653;56.882;60.614;2023-09-19T15:06:49;5.50;;;1.08;;
82344;SDS011;72653;56.882;60.614;2023-09-19T15:11:44;1.63;;;0.93;;
82344;SDS011;72653;56.882;60.614;2023-09-19T15:14:10;2.75;;;1.75;;
82344;SDS011;72653;56.882;60.614;2023-09-19T15:16:35;3.08;;;1.52;;
82344;SDS011;72653;56.882;60.614;2023-09-19T15:19:01;1.88;;;0.98;;
82344;SDS011;72653;56.882;60.614;2023-09-19T15:21:29;6.45;;;1.27;;
82344;SDS011;72653;56.882;60.614;2023-09-19T15:23:55;2.85;;;1.65;;
82344;SDS011;72653;56.882;60.614;2023-09-19T15:26:21;2.90;;;1.52;;
82344;SDS011;72653;56.882;60.614;2023-09-19T15:28:47;1.30;;;0.90;;
82344;SDS011;72653;56.882;60.614;2023-09-19T15:31:13;1.00;;;0.73;;
82344;SDS011;72653;56.882;60.614;2023-09-19T15:33:39;1.65;;;1.33;;
82344;SDS011;72653;56.882;60.614;2023-09-19T15:36:12;1.05;;;0.73;;
82344;SDS011;72653;56.882;60.614;2023-09-19T15:39:00;0.43;;;0.32;;
82344;SDS011;72653;56.882;60.614;2023-09-19T15:41:27;2.65;;;1.42;;
82344;SDS011;72653;56.882;60.614;2023-09-19T15:46:19;2.67;;;1.05;;
82344;SDS011;72653;56.882;60.614;2023-09-19T15:48:45;1.00;;;0.80;;
82344;SDS011;72653;56.882;60.614;2023-09-19T15:51:11;0.80;;;0.60;;
82344;SDS011;72653;56.882;60.614;2023-09-19T15:53:43;0.93;;;0.60;;
82344;SDS011;72653;56.882;60.614;2023-09-19T15:56:10;0.93;;;0.80;;